sensor_id;sensor_type;location;lat;lon;timestamp;temperature;humidity
8882;DHT22;4477;48.736;9.176;2022-07-10T00:00:25;14.30;99.90
8882;DHT22;4477;48.736;9.176;2022-07-10T00:02:54;14.30;99.90
8882;DHT22;4477;48.736;9.176;2022-07-10T00:05:21;14.40;99.90
8882;DHT22;4477;48.736;9.176;2022-07-10T00:07:49;14.50;99.90
8882;DHT22;4477;48.736;9.176;2022-07-10T00:10:17;14.50;99.90
8882;DHT22;4477;48.736;9.176;2022-07-10T00:12:44;14.60;99.90
8882;DHT22;4477;48.736;9.176;2022-07-10T00:15:11;14.70;99.90
8882;DHT22;4477;48.736;9.176;2022-07-10T00:17:39;14.70;99.90
8882;DHT22;4477;48.736;9.176;2022-07-10T00:20:09;14.70;99.90
8882;DHT22;4477;48.736;9.176;2022-07-10T00:22:37;14.80;99.90
8882;DHT22;4477;48.736;9.176;2022-07-10T00:25:05;14.80;99.90
8882;DHT22;4477;48.736;9.176;2022-07-10T00:27:32;14.90;99.90
8882;DHT22;4477;48.736;9.176;2022-07-10T00:29:59;14.90;99.90
8882;DHT22;4477;48.736;9.176;2022-07-10T00:32:26;14.90;99.90
8882;DHT22;4477;48.736;9.176;2022-07-10T00:34:53;15.00;99.90
8882;DHT22;4477;48.736;9.176;2022-07-10T00:37:21;15.00;99.90
8882;DHT22;4477;48.736;9.176;2022-07-10T00:39:48;15.00;99.90
8882;DHT22;4477;48.736;9.176;2022-07-10T00:42:16;15.00;99.90
8882;DHT22;4477;48.736;9.176;2022-07-10T00:44:43;15.00;99.90
8882;DHT22;4477;48.736;9.176;2022-07-10T00:47:11;15.10;99.90
8882;DHT22;4477;48.736;9.176;2022-07-10T00:49:40;15.10;99.90
8882;DHT22;4477;48.736;9.176;2022-07-10T00:52:08;15.10;99.90
8882;DHT22;4477;48.736;9.176;2022-07-10T00:54:39;14.90;99.90
8882;DHT22;4477;48.736;9.176;2022-07-10T00:57:08;14.90;99.90
8882;DHT22;4477;48.736;9.176;2022-07-10T00:59:35;14.80;99.90
8882;DHT22;4477;48.736;9.176;2022-07-10T01:02:04;14.70;99.90
8882;DHT22;4477;48.736;9.176;2022-07-10T01:04:32;14.50;99.90
8882;DHT22;4477;48.736;9.176;2022-07-10T01:06:59;14.40;99.90
8882;DHT22;4477;48.736;9.176;2022-07-10T01:09:26;14.20;99.90
8882;DHT22;4477;48.736;9.176;2022-07-10T01:11:56;14.00;99.90
8882;DHT22;4477;48.736;9.176;2022-07-10T01:14:25;13.90;99.90
8882;DHT22;4477;48.736;9.176;2022-07-10T01:16:52;13.70;99.90
8882;DHT22;4477;48.736;9.176;2022-07-10T01:19:19;13.70;99.90
8882;DHT22;4477;48.736;9.176;2022-07-10T01:21:48;13.70;99.90
8882;DHT22;4477;48.736;9.176;2022-07-10T01:24:14;13.60;99.90
8882;DHT22;4477;48.736;9.176;2022-07-10T01:26:42;13.50;99.90
8882;DHT22;4477;48.736;9.176;2022-07-10T01:29:10;13.50;99.90
8882;DHT22;4477;48.736;9.176;2022-07-10T01:31:37;13.40;99.90
8882;DHT22;4477;48.736;9.176;2022-07-10T01:34:07;13.40;99.90
8882;DHT22;4477;48.736;9.176;2022-07-10T01:36:34;13.30;99.90
8882;DHT22;4477;48.736;9.176;2022-07-10T01:39:03;13.30;99.90
8882;DHT22;4477;48.736;9.176;2022-07-10T01:41:30;13.40;99.90
8882;DHT22;4477;48.736;9.176;2022-07-10T01:43:57;13.40;99.90
8882;DHT22;4477;48.736;9.176;2022-07-10T01:46:24;13.30;99.90
8882;DHT22;4477;48.736;9.176;2022-07-10T01:48:51;13.30;99.90
8882;DHT22;4477;48.736;9.176;2022-07-10T01:51:18;13.30;99.90
8882;DHT22;4477;48.736;9.176;2022-07-10T01:53:45;13.30;99.90
8882;DHT22;4477;48.736;9.176;2022-07-10T01:56:14;13.20;99.90
8882;DHT22;4477;48.736;9.176;2022-07-10T01:58:41;13.10;99.90
8882;DHT22;4477;48.736;9.176;2022-07-10T02:01:09;13.20;99.90
8882;DHT22;4477;48.736;9.176;2022-07-10T02:03:36;13.20;99.90
8882;DHT22;4477;48.736;9.176;2022-07-10T02:06:21;13.20;99.90
8882;DHT22;4477;48.736;9.176;2022-07-10T02:08:48;13.10;99.90
8882;DHT22;4477;48.736;9.176;2022-07-10T02:11:16;13.10;99.90
8882;DHT22;4477;48.736;9.176;2022-07-10T02:13:43;13.00;99.90
8882;DHT22;4477;48.736;9.176;2022-07-10T02:16:10;13.10;99.90
8882;DHT22;4477;48.736;9.176;2022-07-10T02:18:37;13.00;99.90
8882;DHT22;4477;48.736;9.176;2022-07-10T02:21:05;13.00;99.90
8882;DHT22;4477;48.736;9.176;2022-07-10T02:23:32;12.90;99.90
8882;DHT22;4477;48.736;9.176;2022-07-10T02:25:59;13.00;99.90
8882;DHT22;4477;48.736;9.176;2022-07-10T02:28:28;13.10;99.90
8882;DHT22;4477;48.736;9.176;2022-07-10T02:30:55;13.20;99.90
8882;DHT22;4477;48.736;9.176;2022-07-10T02:33:22;13.30;99.90
8882;DHT22;4477;48.736;9.176;2022-07-10T02:35:48;13.50;99.90
8882;DHT22;4477;48.736;9.176;2022-07-10T02:38:15;13.60;99.90
8882;DHT22;4477;48.736;9.176;2022-07-10T02:40:42;13.70;99.90
8882;DHT22;4477;48.736;9.176;2022-07-10T02:43:09;13.80;99.90
8882;DHT22;4477;48.736;9.176;2022-07-10T02:45:37;13.90;99.90
8882;DHT22;4477;48.736;9.176;2022-07-10T02:48:04;14.00;99.90
8882;DHT22;4477;48.736;9.176;2022-07-10T02:50:31;14.10;99.90
8882;DHT22;4477;48.736;9.176;2022-07-10T02:52:58;14.20;99.90
8882;DHT22;4477;48.736;9.176;2022-07-10T02:55:25;14.30;99.90
8882;DHT22;4477;48.736;9.176;2022-07-10T02:57:52;14.40;99.90
8882;DHT22;4477;48.736;9.176;2022-07-10T03:00:19;14.40;99.90
8882;DHT22;4477;48.736;9.176;2022-07-10T03:02:47;14.50;99.90
8882;DHT22;4477;48.736;9.176;2022-07-10T03:05:14;14.50;99.90
8882;DHT22;4477;48.736;9.176;2022-07-10T03:07:41;14.50;99.90
8882;DHT22;4477;48.736;9.176;2022-07-10T03:10:08;14.60;99.90
8882;DHT22;4477;48.736;9.176;2022-07-10T03:12:35;14.60;99.90
8882;DHT22;4477;48.736;9.176;2022-07-10T03:15:04;14.50;99.90
8882;DHT22;4477;48.736;9.176;2022-07-10T03:17:32;14.50;99.90
8882;DHT22;4477;48.736;9.176;2022-07-10T03:20:01;14.50;99.90
8882;DHT22;4477;48.736;9.176;2022-07-10T03:22:28;14.60;99.90
8882;DHT22;4477;48.736;9.176;2022-07-10T03:24:56;14.60;99.90
8882;DHT22;4477;48.736;9.176;2022-07-10T03:27:23;14.50;99.90
8882;DHT22;4477;48.736;9.176;2022-07-10T03:29:50;14.50;99.90
8882;DHT22;4477;48.736;9.176;2022-07-10T03:32:17;14.60;99.90
8882;DHT22;4477;48.736;9.176;2022-07-10T03:34:43;14.60;99.90
8882;DHT22;4477;48.736;9.176;2022-07-10T03:37:12;14.60;99.90
8882;DHT22;4477;48.736;9.176;2022-07-10T03:39:39;14.60;99.90
8882;DHT22;4477;48.736;9.176;2022-07-10T03:42:06;14.60;99.90
8882;DHT22;4477;48.736;9.176;2022-07-10T03:44:33;14.60;99.90
8882;DHT22;4477;48.736;9.176;2022-07-10T03:47:00;14.60;99.90
8882;DHT22;4477;48.736;9.176;2022-07-10T03:49:27;14.50;99.90
8882;DHT22;4477;48.736;9.176;2022-07-10T03:51:54;14.60;99.90
8882;DHT22;4477;48.736;9.176;2022-07-10T03:54:22;14.60;99.90
8882;DHT22;4477;48.736;9.176;2022-07-10T03:56:49;14.60;99.90
8882;DHT22;4477;48.736;9.176;2022-07-10T03:59:33;14.60;99.90
8882;DHT22;4477;48.736;9.176;2022-07-10T04:02:00;14.60;99.90
8882;DHT22;4477;48.736;9.176;2022-07-10T04:04:27;14.60;99.90
8882;DHT22;4477;48.736;9.176;2022-07-10T04:06:54;14.60;99.90
8882;DHT22;4477;48.736;9.176;2022-07-10T04:09:23;14.60;99.90
8882;DHT22;4477;48.736;9.176;2022-07-10T04:11:49;14.60;99.90
8882;DHT22;4477;48.736;9.176;2022-07-10T04:14:17;14.70;99.90
8882;DHT22;4477;48.736;9.176;2022-07-10T04:16:44;14.70;99.90
8882;DHT22;4477;48.736;9.176;2022-07-10T04:19:11;14.70;99.90
8882;DHT22;4477;48.736;9.176;2022-07-10T04:21:38;14.70;99.90
8882;DHT22;4477;48.736;9.176;2022-07-10T04:24:05;14.60;99.90
8882;DHT22;4477;48.736;9.176;2022-07-10T04:26:33;14.50;99.90
8882;DHT22;4477;48.736;9.176;2022-07-10T04:29:00;14.40;99.90
8882;DHT22;4477;48.736;9.176;2022-07-10T04:31:27;14.40;99.90
8882;DHT22;4477;48.736;9.176;2022-07-10T04:33:54;14.50;99.90
8882;DHT22;4477;48.736;9.176;2022-07-10T04:36:23;14.50;99.90
8882;DHT22;4477;48.736;9.176;2022-07-10T04:38:49;14.50;99.90
8882;DHT22;4477;48.736;9.176;2022-07-10T04:41:17;14.50;99.90
8882;DHT22;4477;48.736;9.176;2022-07-10T04:43:45;14.50;99.90
8882;DHT22;4477;48.736;9.176;2022-07-10T04:46:12;14.50;99.90
8882;DHT22;4477;48.736;9.176;2022-07-10T04:48:38;14.50;99.90
8882;DHT22;4477;48.736;9.176;2022-07-10T04:51:05;14.50;99.90
8882;DHT22;4477;48.736;9.176;2022-07-10T04:53:32;14.50;99.90
8882;DHT22;4477;48.736;9.176;2022-07-10T04:55:59;14.50;99.90
8882;DHT22;4477;48.736;9.176;2022-07-10T04:58:27;14.50;99.90
8882;DHT22;4477;48.736;9.176;2022-07-10T05:00:56;14.60;99.90
8882;DHT22;4477;48.736;9.176;2022-07-10T05:03:23;14.60;99.90
8882;DHT22;4477;48.736;9.176;2022-07-10T05:05:49;14.60;99.90
8882;DHT22;4477;48.736;9.176;2022-07-10T05:08:16;14.60;99.90
8882;DHT22;4477;48.736;9.176;2022-07-10T05:10:43;14.60;99.90
8882;DHT22;4477;48.736;9.176;2022-07-10T05:13:10;14.60;99.90
8882;DHT22;4477;48.736;9.176;2022-07-10T05:15:37;14.60;99.90
8882;DHT22;4477;48.736;9.176;2022-07-10T05:18:05;14.70;99.90
8882;DHT22;4477;48.736;9.176;2022-07-10T05:20:33;14.70;99.90
8882;DHT22;4477;48.736;9.176;2022-07-10T05:23:01;14.70;99.90
8882;DHT22;4477;48.736;9.176;2022-07-10T05:25:27;14.80;99.90
8882;DHT22;4477;48.736;9.176;2022-07-10T05:27:56;14.80;99.90
8882;DHT22;4477;48.736;9.176;2022-07-10T05:30:23;14.90;99.90
8882;DHT22;4477;48.736;9.176;2022-07-10T05:32:50;14.90;99.90
8882;DHT22;4477;48.736;9.176;2022-07-10T05:35:18;15.00;99.90
8882;DHT22;4477;48.736;9.176;2022-07-10T05:37:45;14.90;99.90
8882;DHT22;4477;48.736;9.176;2022-07-10T05:40:12;14.90;99.90
8882;DHT22;4477;48.736;9.176;2022-07-10T05:42:40;14.90;99.90
8882;DHT22;4477;48.736;9.176;2022-07-10T05:45:08;14.80;99.90
8882;DHT22;4477;48.736;9.176;2022-07-10T05:47:35;14.80;99.90
8882;DHT22;4477;48.736;9.176;2022-07-10T05:50:03;14.90;99.90
8882;DHT22;4477;48.736;9.176;2022-07-10T05:52:31;15.10;99.90
8882;DHT22;4477;48.736;9.176;2022-07-10T05:54:58;15.80;99.90
8882;DHT22;4477;48.736;9.176;2022-07-10T05:57:25;16.90;99.90
8882;DHT22;4477;48.736;9.176;2022-07-10T05:59:52;17.40;99.90
8882;DHT22;4477;48.736;9.176;2022-07-10T06:02:19;17.20;99.90
8882;DHT22;4477;48.736;9.176;2022-07-10T06:04:48;16.90;99.90
8882;DHT22;4477;48.736;9.176;2022-07-10T06:07:15;16.80;99.90
8882;DHT22;4477;48.736;9.176;2022-07-10T06:09:44;16.50;99.90
8882;DHT22;4477;48.736;9.176;2022-07-10T06:12:10;16.40;99.90
8882;DHT22;4477;48.736;9.176;2022-07-10T06:14:37;16.50;99.90
8882;DHT22;4477;48.736;9.176;2022-07-10T06:17:04;16.40;99.90
8882;DHT22;4477;48.736;9.176;2022-07-10T06:19:31;16.50;99.90
8882;DHT22;4477;48.736;9.176;2022-07-10T06:21:58;16.90;99.90
8882;DHT22;4477;48.736;9.176;2022-07-10T06:24:44;17.80;99.90
8882;DHT22;4477;48.736;9.176;2022-07-10T06:27:10;18.60;99.90
8882;DHT22;4477;48.736;9.176;2022-07-10T06:29:37;18.60;99.90
8882;DHT22;4477;48.736;9.176;2022-07-10T06:32:05;18.60;99.90
8882;DHT22;4477;48.736;9.176;2022-07-10T06:34:32;19.00;99.90
8882;DHT22;4477;48.736;9.176;2022-07-10T06:36:58;18.80;99.90
8882;DHT22;4477;48.736;9.176;2022-07-10T06:39:25;18.50;99.90
8882;DHT22;4477;48.736;9.176;2022-07-10T06:41:54;18.10;99.90
8882;DHT22;4477;48.736;9.176;2022-07-10T06:44:21;17.90;99.90
8882;DHT22;4477;48.736;9.176;2022-07-10T06:46:48;17.80;99.90
8882;DHT22;4477;48.736;9.176;2022-07-10T06:49:29;17.40;99.90
8882;DHT22;4477;48.736;9.176;2022-07-10T06:51:56;17.10;99.90
8882;DHT22;4477;48.736;9.176;2022-07-10T06:54:23;17.10;99.90
8882;DHT22;4477;48.736;9.176;2022-07-10T06:56:49;16.70;99.90
8882;DHT22;4477;48.736;9.176;2022-07-10T06:59:18;16.60;99.90
8882;DHT22;4477;48.736;9.176;2022-07-10T07:01:45;16.60;99.90
8882;DHT22;4477;48.736;9.176;2022-07-10T07:04:12;16.50;99.90
8882;DHT22;4477;48.736;9.176;2022-07-10T07:06:39;16.40;99.90
8882;DHT22;4477;48.736;9.176;2022-07-10T07:09:08;16.40;99.90
8882;DHT22;4477;48.736;9.176;2022-07-10T07:11:35;17.40;99.90
8882;DHT22;4477;48.736;9.176;2022-07-10T07:14:02;18.00;99.90
8882;DHT22;4477;48.736;9.176;2022-07-10T07:16:30;18.00;99.90
8882;DHT22;4477;48.736;9.176;2022-07-10T07:19:07;17.50;99.90
8882;DHT22;4477;48.736;9.176;2022-07-10T07:21:34;16.80;99.90
8882;DHT22;4477;48.736;9.176;2022-07-10T07:24:14;16.20;99.90
8882;DHT22;4477;48.736;9.176;2022-07-10T07:26:44;17.10;99.90
8882;DHT22;4477;48.736;9.176;2022-07-10T07:29:12;18.50;99.90
8882;DHT22;4477;48.736;9.176;2022-07-10T07:31:41;19.30;99.90
8882;DHT22;4477;48.736;9.176;2022-07-10T07:34:08;19.30;99.90
8882;DHT22;4477;48.736;9.176;2022-07-10T07:36:35;19.50;99.90
8882;DHT22;4477;48.736;9.176;2022-07-10T07:39:02;19.90;99.90
8882;DHT22;4477;48.736;9.176;2022-07-10T07:41:29;19.80;99.90
8882;DHT22;4477;48.736;9.176;2022-07-10T07:43:56;19.20;99.90
8882;DHT22;4477;48.736;9.176;2022-07-10T07:46:23;18.70;99.90
8882;DHT22;4477;48.736;9.176;2022-07-10T07:48:52;18.50;99.90
8882;DHT22;4477;48.736;9.176;2022-07-10T07:51:19;18.40;99.90
8882;DHT22;4477;48.736;9.176;2022-07-10T07:53:46;18.60;99.90
8882;DHT22;4477;48.736;9.176;2022-07-10T07:56:13;19.10;99.90
8882;DHT22;4477;48.736;9.176;2022-07-10T07:58:40;19.40;99.90
8882;DHT22;4477;48.736;9.176;2022-07-10T08:01:06;20.00;99.90
8882;DHT22;4477;48.736;9.176;2022-07-10T08:03:33;21.00;99.00
8882;DHT22;4477;48.736;9.176;2022-07-10T08:06:02;21.50;97.50
8882;DHT22;4477;48.736;9.176;2022-07-10T08:08:29;22.40;95.60
8882;DHT22;4477;48.736;9.176;2022-07-10T08:10:56;22.90;93.60
8882;DHT22;4477;48.736;9.176;2022-07-10T08:13:23;23.40;92.30
8882;DHT22;4477;48.736;9.176;2022-07-10T08:15:50;23.60;90.80
8882;DHT22;4477;48.736;9.176;2022-07-10T08:18:17;24.20;85.40
8882;DHT22;4477;48.736;9.176;2022-07-10T08:20:43;25.00;81.80
8882;DHT22;4477;48.736;9.176;2022-07-10T08:23:12;24.90;77.20
8882;DHT22;4477;48.736;9.176;2022-07-10T08:25:39;25.40;75.50
8882;DHT22;4477;48.736;9.176;2022-07-10T08:28:05;25.40;76.30
8882;DHT22;4477;48.736;9.176;2022-07-10T08:30:33;25.10;69.10
8882;DHT22;4477;48.736;9.176;2022-07-10T08:33:00;24.50;71.60
8882;DHT22;4477;48.736;9.176;2022-07-10T08:35:27;24.00;75.40
8882;DHT22;4477;48.736;9.176;2022-07-10T08:37:53;24.10;70.10
8882;DHT22;4477;48.736;9.176;2022-07-10T08:40:22;24.30;72.10
8882;DHT22;4477;48.736;9.176;2022-07-10T08:42:49;23.40;70.50
8882;DHT22;4477;48.736;9.176;2022-07-10T08:45:16;22.30;73.50
8882;DHT22;4477;48.736;9.176;2022-07-10T08:47:43;22.30;77.00
8882;DHT22;4477;48.736;9.176;2022-07-10T08:50:16;22.80;79.50
8882;DHT22;4477;48.736;9.176;2022-07-10T08:52:47;24.10;73.00
8882;DHT22;4477;48.736;9.176;2022-07-10T08:55:21;23.90;71.70
8882;DHT22;4477;48.736;9.176;2022-07-10T08:57:50;22.70;74.50
8882;DHT22;4477;48.736;9.176;2022-07-10T09:00:18;21.80;76.20
8882;DHT22;4477;48.736;9.176;2022-07-10T09:02:45;22.50;78.90
8882;DHT22;4477;48.736;9.176;2022-07-10T09:05:12;23.60;77.30
8882;DHT22;4477;48.736;9.176;2022-07-10T09:07:40;24.70;72.30
8882;DHT22;4477;48.736;9.176;2022-07-10T09:10:10;24.40;70.10
8882;DHT22;4477;48.736;9.176;2022-07-10T09:12:51;24.10;72.70
8882;DHT22;4477;48.736;9.176;2022-07-10T09:15:19;24.30;71.20
8882;DHT22;4477;48.736;9.176;2022-07-10T09:17:52;24.20;70.80
8882;DHT22;4477;48.736;9.176;2022-07-10T09:20:30;24.00;69.40
8882;DHT22;4477;48.736;9.176;2022-07-10T09:22:59;23.60;69.80
8882;DHT22;4477;48.736;9.176;2022-07-10T09:25:35;23.00;73.10
8882;DHT22;4477;48.736;9.176;2022-07-10T09:28:04;23.00;74.40
8882;DHT22;4477;48.736;9.176;2022-07-10T09:30:35;23.10;72.80
8882;DHT22;4477;48.736;9.176;2022-07-10T09:33:16;22.40;70.70
8882;DHT22;4477;48.736;9.176;2022-07-10T09:36:11;22.20;73.00
8882;DHT22;4477;48.736;9.176;2022-07-10T09:38:54;23.50;71.20
8882;DHT22;4477;48.736;9.176;2022-07-10T09:41:25;23.70;70.10
8882;DHT22;4477;48.736;9.176;2022-07-10T09:43:55;22.80;69.20
8882;DHT22;4477;48.736;9.176;2022-07-10T09:46:23;22.30;72.40
8882;DHT22;4477;48.736;9.176;2022-07-10T09:49:05;22.90;69.10
8882;DHT22;4477;48.736;9.176;2022-07-10T09:51:34;23.10;72.10
8882;DHT22;4477;48.736;9.176;2022-07-10T09:54:03;24.40;73.70
8882;DHT22;4477;48.736;9.176;2022-07-10T09:56:34;25.60;66.10
8882;DHT22;4477;48.736;9.176;2022-07-10T09:59:09;26.10;60.20
8882;DHT22;4477;48.736;9.176;2022-07-10T10:01:36;25.70;59.80
8882;DHT22;4477;48.736;9.176;2022-07-10T10:04:04;24.60;61.30
8882;DHT22;4477;48.736;9.176;2022-07-10T10:06:33;23.30;66.30
8882;DHT22;4477;48.736;9.176;2022-07-10T10:09:04;23.60;64.60
8882;DHT22;4477;48.736;9.176;2022-07-10T10:11:35;23.80;63.00
8882;DHT22;4477;48.736;9.176;2022-07-10T10:14:03;23.40;64.50
8882;DHT22;4477;48.736;9.176;2022-07-10T10:16:31;22.50;66.60
8882;DHT22;4477;48.736;9.176;2022-07-10T10:18:59;22.40;67.00
8882;DHT22;4477;48.736;9.176;2022-07-10T10:21:46;22.20;69.60
8882;DHT22;4477;48.736;9.176;2022-07-10T10:24:14;22.20;68.90
8882;DHT22;4477;48.736;9.176;2022-07-10T10:26:41;23.00;73.30
8882;DHT22;4477;48.736;9.176;2022-07-10T10:29:10;23.10;64.90
8882;DHT22;4477;48.736;9.176;2022-07-10T10:31:39;22.40;67.60
8882;DHT22;4477;48.736;9.176;2022-07-10T10:34:06;22.10;68.50
8882;DHT22;4477;48.736;9.176;2022-07-10T10:36:46;22.40;72.60
8882;DHT22;4477;48.736;9.176;2022-07-10T10:39:15;23.00;71.50
8882;DHT22;4477;48.736;9.176;2022-07-10T10:41:46;24.10;70.90
8882;DHT22;4477;48.736;9.176;2022-07-10T10:44:29;23.90;62.60
8882;DHT22;4477;48.736;9.176;2022-07-10T10:47:09;24.20;66.80
8882;DHT22;4477;48.736;9.176;2022-07-10T10:49:55;24.40;66.10
8882;DHT22;4477;48.736;9.176;2022-07-10T10:52:24;24.50;58.50
8882;DHT22;4477;48.736;9.176;2022-07-10T10:55:05;23.40;61.10
8882;DHT22;4477;48.736;9.176;2022-07-10T10:57:38;22.10;63.30
8882;DHT22;4477;48.736;9.176;2022-07-10T11:00:13;21.90;68.50
8882;DHT22;4477;48.736;9.176;2022-07-10T11:02:42;22.80;64.00
8882;DHT22;4477;48.736;9.176;2022-07-10T11:05:41;23.40;65.60
8882;DHT22;4477;48.736;9.176;2022-07-10T11:08:09;24.80;66.60
8882;DHT22;4477;48.736;9.176;2022-07-10T11:10:37;25.50;63.60
8882;DHT22;4477;48.736;9.176;2022-07-10T11:13:05;25.60;61.10
8882;DHT22;4477;48.736;9.176;2022-07-10T11:15:34;25.60;61.10
8882;DHT22;4477;48.736;9.176;2022-07-10T11:18:09;25.90;60.70
8882;DHT22;4477;48.736;9.176;2022-07-10T11:20:38;25.80;60.40
8882;DHT22;4477;48.736;9.176;2022-07-10T11:26:02;24.10;61.10
8882;DHT22;4477;48.736;9.176;2022-07-10T11:28:50;22.80;63.10
8882;DHT22;4477;48.736;9.176;2022-07-10T11:31:17;22.30;68.90
8882;DHT22;4477;48.736;9.176;2022-07-10T11:33:47;22.70;62.20
8882;DHT22;4477;48.736;9.176;2022-07-10T11:36:15;23.10;63.30
8882;DHT22;4477;48.736;9.176;2022-07-10T11:38:43;24.00;62.10
8882;DHT22;4477;48.736;9.176;2022-07-10T11:41:14;24.40;58.40
8882;DHT22;4477;48.736;9.176;2022-07-10T11:43:52;24.60;58.30
8882;DHT22;4477;48.736;9.176;2022-07-10T11:46:20;25.10;56.40
8882;DHT22;4477;48.736;9.176;2022-07-10T11:48:49;25.40;60.10
8882;DHT22;4477;48.736;9.176;2022-07-10T11:51:21;26.30;58.30
8882;DHT22;4477;48.736;9.176;2022-07-10T11:53:56;26.70;57.10
8882;DHT22;4477;48.736;9.176;2022-07-10T11:56:25;26.00;56.10
8882;DHT22;4477;48.736;9.176;2022-07-10T11:58:56;26.00;54.20
8882;DHT22;4477;48.736;9.176;2022-07-10T12:01:24;26.10;55.90
8882;DHT22;4477;48.736;9.176;2022-07-10T12:04:01;26.80;58.60
8882;DHT22;4477;48.736;9.176;2022-07-10T12:06:29;27.50;53.90
8882;DHT22;4477;48.736;9.176;2022-07-10T12:09:01;27.40;57.70
8882;DHT22;4477;48.736;9.176;2022-07-10T12:11:28;26.70;56.10
8882;DHT22;4477;48.736;9.176;2022-07-10T12:14:09;26.70;55.40
8882;DHT22;4477;48.736;9.176;2022-07-10T12:16:36;27.10;53.60
8882;DHT22;4477;48.736;9.176;2022-07-10T12:19:06;27.80;48.50
8882;DHT22;4477;48.736;9.176;2022-07-10T12:21:33;27.70;55.20
8882;DHT22;4477;48.736;9.176;2022-07-10T12:24:02;28.10;53.10
8882;DHT22;4477;48.736;9.176;2022-07-10T12:26:33;28.10;52.10
8882;DHT22;4477;48.736;9.176;2022-07-10T12:29:01;27.10;50.30
8882;DHT22;4477;48.736;9.176;2022-07-10T12:31:29;26.10;52.80
8882;DHT22;4477;48.736;9.176;2022-07-10T12:33:59;25.60;53.10
8882;DHT22;4477;48.736;9.176;2022-07-10T12:36:43;26.10;53.00
8882;DHT22;4477;48.736;9.176;2022-07-10T12:39:10;26.20;51.80
8882;DHT22;4477;48.736;9.176;2022-07-10T12:41:56;26.30;54.70
8882;DHT22;4477;48.736;9.176;2022-07-10T12:44:34;26.60;54.50
8882;DHT22;4477;48.736;9.176;2022-07-10T12:47:02;26.80;52.40
8882;DHT22;4477;48.736;9.176;2022-07-10T12:49:29;26.90;53.60
8882;DHT22;4477;48.736;9.176;2022-07-10T12:51:57;27.70;50.90
8882;DHT22;4477;48.736;9.176;2022-07-10T12:54:31;28.30;50.60
8882;DHT22;4477;48.736;9.176;2022-07-10T12:56:58;27.80;49.10
8882;DHT22;4477;48.736;9.176;2022-07-10T12:59:27;27.40;52.70
8882;DHT22;4477;48.736;9.176;2022-07-10T13:01:54;27.80;51.10
8882;DHT22;4477;48.736;9.176;2022-07-10T13:04:23;28.30;50.50
8882;DHT22;4477;48.736;9.176;2022-07-10T13:06:50;27.80;51.70
8882;DHT22;4477;48.736;9.176;2022-07-10T13:09:20;27.40;48.50
8882;DHT22;4477;48.736;9.176;2022-07-10T13:11:47;27.20;51.80
8882;DHT22;4477;48.736;9.176;2022-07-10T13:14:14;27.10;49.00
8882;DHT22;4477;48.736;9.176;2022-07-10T13:16:41;27.50;49.00
8882;DHT22;4477;48.736;9.176;2022-07-10T13:19:08;27.70;49.80
8882;DHT22;4477;48.736;9.176;2022-07-10T13:21:35;27.30;52.50
8882;DHT22;4477;48.736;9.176;2022-07-10T13:24:03;27.30;51.30
8882;DHT22;4477;48.736;9.176;2022-07-10T13:26:32;28.00;49.80
8882;DHT22;4477;48.736;9.176;2022-07-10T13:28:59;28.70;49.30
8882;DHT22;4477;48.736;9.176;2022-07-10T13:31:26;28.30;43.70
8882;DHT22;4477;48.736;9.176;2022-07-10T13:33:53;28.10;48.90
8882;DHT22;4477;48.736;9.176;2022-07-10T13:36:20;27.90;48.30
8882;DHT22;4477;48.736;9.176;2022-07-10T13:38:47;28.10;47.30
8882;DHT22;4477;48.736;9.176;2022-07-10T13:41:15;28.30;46.20
8882;DHT22;4477;48.736;9.176;2022-07-10T13:43:44;28.50;50.20
8882;DHT22;4477;48.736;9.176;2022-07-10T13:46:11;28.50;47.80
8882;DHT22;4477;48.736;9.176;2022-07-10T13:48:38;28.10;47.50
8882;DHT22;4477;48.736;9.176;2022-07-10T13:51:05;28.10;46.00
8882;DHT22;4477;48.736;9.176;2022-07-10T13:53:32;28.30;47.70
8882;DHT22;4477;48.736;9.176;2022-07-10T13:55:59;28.30;46.20
8882;DHT22;4477;48.736;9.176;2022-07-10T13:58:26;28.40;47.00
8882;DHT22;4477;48.736;9.176;2022-07-10T14:04:13;27.80;44.60
8882;DHT22;4477;48.736;9.176;2022-07-10T14:06:40;27.80;47.80
8882;DHT22;4477;48.736;9.176;2022-07-10T14:09:07;28.20;49.10
8882;DHT22;4477;48.736;9.176;2022-07-10T14:11:34;28.80;44.90
8882;DHT22;4477;48.736;9.176;2022-07-10T14:14:01;28.20;46.10
8882;DHT22;4477;48.736;9.176;2022-07-10T14:16:30;28.10;44.80
8882;DHT22;4477;48.736;9.176;2022-07-10T14:18:58;28.30;46.50
8882;DHT22;4477;48.736;9.176;2022-07-10T14:21:26;29.00;44.20
8882;DHT22;4477;48.736;9.176;2022-07-10T14:23:54;29.60;47.80
8882;DHT22;4477;48.736;9.176;2022-07-10T14:26:22;30.10;42.80
8882;DHT22;4477;48.736;9.176;2022-07-10T14:28:49;30.90;44.30
8882;DHT22;4477;48.736;9.176;2022-07-10T14:31:17;31.30;41.00
8882;DHT22;4477;48.736;9.176;2022-07-10T14:33:44;31.40;40.20
8882;DHT22;4477;48.736;9.176;2022-07-10T14:36:11;31.10;41.80
8882;DHT22;4477;48.736;9.176;2022-07-10T14:38:39;31.00;42.70
8882;DHT22;4477;48.736;9.176;2022-07-10T14:41:06;30.80;41.90
8882;DHT22;4477;48.736;9.176;2022-07-10T14:43:33;29.50;42.20
8882;DHT22;4477;48.736;9.176;2022-07-10T14:46:00;29.00;44.30
8882;DHT22;4477;48.736;9.176;2022-07-10T14:48:29;28.70;43.90
8882;DHT22;4477;48.736;9.176;2022-07-10T14:50:57;28.90;43.60
8882;DHT22;4477;48.736;9.176;2022-07-10T14:53:24;29.10;43.90
8882;DHT22;4477;48.736;9.176;2022-07-10T14:55:53;29.20;46.10
8882;DHT22;4477;48.736;9.176;2022-07-10T14:58:20;29.90;44.50
8882;DHT22;4477;48.736;9.176;2022-07-10T15:00:47;29.90;43.40
8882;DHT22;4477;48.736;9.176;2022-07-10T15:03:14;30.30;43.90
8882;DHT22;4477;48.736;9.176;2022-07-10T15:05:41;31.20;43.30
8882;DHT22;4477;48.736;9.176;2022-07-10T15:08:08;31.70;43.70
8882;DHT22;4477;48.736;9.176;2022-07-10T15:10:35;31.40;43.10
8882;DHT22;4477;48.736;9.176;2022-07-10T15:13:03;31.30;40.30
8882;DHT22;4477;48.736;9.176;2022-07-10T15:15:31;31.40;39.30
8882;DHT22;4477;48.736;9.176;2022-07-10T15:18:00;30.20;41.10
8882;DHT22;4477;48.736;9.176;2022-07-10T15:20:30;30.00;43.10
8882;DHT22;4477;48.736;9.176;2022-07-10T15:22:57;30.70;43.10
8882;DHT22;4477;48.736;9.176;2022-07-10T15:25:24;30.30;38.50
8882;DHT22;4477;48.736;9.176;2022-07-10T15:27:52;30.40;40.50
8882;DHT22;4477;48.736;9.176;2022-07-10T15:30:21;30.40;41.60
8882;DHT22;4477;48.736;9.176;2022-07-10T15:32:48;30.60;41.20
8882;DHT22;4477;48.736;9.176;2022-07-10T15:35:15;30.60;37.70
8882;DHT22;4477;48.736;9.176;2022-07-10T15:37:42;30.50;38.00
8882;DHT22;4477;48.736;9.176;2022-07-10T15:40:10;30.60;39.60
8882;DHT22;4477;48.736;9.176;2022-07-10T15:42:37;30.90;38.90
8882;DHT22;4477;48.736;9.176;2022-07-10T15:45:05;30.60;40.60
8882;DHT22;4477;48.736;9.176;2022-07-10T15:47:36;31.00;39.90
8882;DHT22;4477;48.736;9.176;2022-07-10T15:50:03;31.40;38.40
8882;DHT22;4477;48.736;9.176;2022-07-10T15:52:31;31.80;38.70
8882;DHT22;4477;48.736;9.176;2022-07-10T15:54:58;31.90;36.90
8882;DHT22;4477;48.736;9.176;2022-07-10T15:57:27;31.40;37.80
8882;DHT22;4477;48.736;9.176;2022-07-10T15:59:54;31.30;36.80
8882;DHT22;4477;48.736;9.176;2022-07-10T16:02:21;31.40;37.00
8882;DHT22;4477;48.736;9.176;2022-07-10T16:04:50;31.00;38.80
8882;DHT22;4477;48.736;9.176;2022-07-10T16:07:17;31.40;35.80
8882;DHT22;4477;48.736;9.176;2022-07-10T16:09:44;32.20;34.90
8882;DHT22;4477;48.736;9.176;2022-07-10T16:12:11;32.30;33.70
8882;DHT22;4477;48.736;9.176;2022-07-10T16:14:38;31.00;37.50
8882;DHT22;4477;48.736;9.176;2022-07-10T16:17:05;30.90;36.50